• Join FlightAware (Why Join?)
  • Login
  • US Flag 
06:21PM EST


 

Airport Tracker/Info


-or-


 

Live Flight TrackerFlight Track Log ✈ DAL3970 ✈ 23-Apr-2013 ✈ KCWA - KDTW

Flight Track Log - Related Links

Times and Time Zones

All times are in EDT time to prevent confusion due to time zone crossing. See the DAL3970 flight status page for this flight to view local times or setup timezone preferences in your user account.

Time Position Orientation Groundspeed Altitude Reporting Facility
EDT Latitude Longitude Course Direction KTS MPH feet Rate Location/Type
08:08AM 44.7872 -89.7056 101° East 169 194 3,000  Level Minneapolis Center
08:09AM 44.8386 -89.7014 North 197 227 5,100 1,680 Climbing Minneapolis Center
08:10AM 44.7153 -89.2656 107° East  Level FlightAware Approximate
08:10AM 44.8472 -89.6033 83° East 275 316 6,500  Level Minneapolis Center
08:11AM 44.6872 -89.1348 107° East  Level FlightAware Approximate
08:11AM 44.8211 -89.4892 108° East 292 336 9,000  Level Minneapolis Center
08:12AM 44.6792 -89.0000 109° East  Level FlightAware Approximate
08:12AM 44.7983 -89.3753 106° East 310 357 11,300  Level Minneapolis Center
08:13AM 44.6482 -88.8706 101° East  Level FlightAware Approximate
08:13AM 44.7706 -89.2369 106° East 348 400 12,600  Level Minneapolis Center
08:14AM 44.7406 -89.0881 106° East 377 434 14,800 1,800 Climbing Minneapolis Center
08:15AM 44.7100 -88.9433 106° East 386 444 16,400 1,620 Climbing Minneapolis Center
08:16AM 44.6775 -88.7889 106° East 406 467 18,100 1,800 Climbing Minneapolis Center
08:17AM 44.6472 -88.6356 105° East 407 468 20,100 1,620 Climbing Minneapolis Center
08:18AM 44.6150 -88.4839 107° East 405 466 21,500 1,080 Climbing Minneapolis Center
08:19AM 44.5814 -88.3269 107° East 416 479 22,400 840 Climbing Minneapolis Center
08:20AM 44.5408 -88.1669 110° East 430 495 23,300 960 Climbing Minneapolis Center
08:21AM 44.4572 -88.0039 126° Southeast 437 503 24,400 960 Climbing Minneapolis Center
08:22AM 44.3847 -87.8633 126° Southeast 442 509 25,300 840 Climbing Minneapolis Center
08:23AM 44.3106 -87.7200 126° Southeast 450 518 26,200 900 Climbing Minneapolis Center
08:24AM 44.2344 -87.5731 126° Southeast 461 531 27,200 840 Climbing Minneapolis Center
08:25AM 44.1581 -87.4292 126° Southeast 460 529 28,000 720 Climbing Minneapolis Center
08:26AM 44.0803 -87.2811 126° Southeast 467 537 28,700 480 Climbing Minneapolis Center
08:27AM 43.9989 -87.1267 126° Southeast 473 544 29,000 120 Climbing Minneapolis Center
08:28AM 43.9178 -86.9739 126° Southeast 487 560 29,000  Level Minneapolis Center
08:29AM 43.8333 -86.8153 126° Southeast 506 582 29,000  Level Minneapolis Center
08:30AM 43.7486 -86.6564 126° Southeast 513 590 29,000  Level Minneapolis Center
08:31AM 43.6656 -86.5028 127° Southeast 503 579 29,000  Level Minneapolis Center
08:32AM 43.5878 -86.3572 126° Southeast 477 549 29,000  Level Minneapolis Center
08:33AM 43.5092 -86.2128 127° Southeast 472 543 29,000  Level Minneapolis Center
08:33AM 43.4772 -86.1556 128° Southeast 472 543 29,000  Level Chicago Center
08:34AM 43.3972 -86.0083 127° Southeast 477 549 29,000  Level Chicago Center
08:35AM 43.3553 -85.8275 108° East 496 571 29,000 -240 Level Chicago Center
08:36AM 43.3231 -85.6439 104° East 493 567 28,600 -1,320 Descending Chicago Center
08:38AM 43.2903 -85.4628 104° East 488 562 26,300 -2,280 Descending Chicago Center
08:39AM 43.2611 -85.2989 104° East 447 514 24,000 -2,280 Descending Chicago Center
08:40AM 43.2333 -85.1475 104° East 415 478 21,700 -2,040 Descending Chicago Center
08:41AM 43.2069 -85.0017 104° East 400 460 19,800 -1,980 Descending Chicago Center
08:42AM 43.1775 -84.8428 104° East 368 423 17,700 -1,620 Descending Chicago Center
08:43AM 43.1542 -84.7181 104° East 347 399 16,600 -1,080 Descending Chicago Center
08:44AM 43.1325 -84.5986 104° East 330 380 15,500 -900 Descending Chicago Center
08:45AM 43.1106 -84.4825 104° East 320 368 14,800 -780 Descending Chicago Center
08:46AM 43.0867 -84.3656 106° East 318 366 14,000 -840 Descending Chicago Center
08:47AM 43.0647 -84.2500 105° East 317 365 13,200 -780 Descending Chicago Center
08:48AM 43.0431 -84.1367 105° East 311 358 12,500 -660 Descending Chicago Center
08:48AM 43.0258 -84.0964 120° Southeast 304 350 12,400 -600 Descending Cleveland Center
08:49AM 42.9981 -84.0439 126° Southeast 300 345 12,000 -420 Descending Cleveland Center
08:49AM 42.9783 -84.0058 125° Southeast 285 328 12,000 -120 Level Cleveland Center
08:50AM 42.9506 -83.9589 129° Southeast 294 338 11,900 60 Descending Cleveland Center
08:50AM 42.9347 -83.9267 124° Southeast 284 327 12,100 60 Climbing Cleveland Center
08:51AM 42.9053 -83.8714 126° Southeast 287 330 12,000 -120 Descending Cleveland Center
08:51AM 42.8875 -83.8364 125° Southeast 293 337 12,000  Level Cleveland Center
08:52AM 42.8578 -83.7811 126° Southeast 287 330 12,000 60 Level Cleveland Center
08:52AM 42.8317 -83.7400 131° Southeast 285 328 12,100 -240 Climbing Cleveland Center
08:53AM 42.8011 -83.7158 150° Southeast 275 316 11,800 -1,260 Descending Cleveland Center
08:53AM 42.7619 -83.6969 161° South 266 306 10,800 -1,920 Descending Cleveland Center
08:54AM 42.7272 -83.6725 153° Southeast 264 304 9,900 -1,620 Descending Cleveland Center
08:54AM 42.6986 -83.6542 155° Southeast 264 304 9,200 -840 Descending Cleveland Center
08:55AM 42.6703 -83.6217 140° Southeast 259 298 9,100 -360 Descending Cleveland Center
08:55AM 42.6503 -83.5869 128° Southeast 272 313 8,900 -1,140 Descending Cleveland Center
08:56AM 42.6200 -83.5489 137° Southeast 259 298 8,000 -1,980 Descending Cleveland Center
08:56AM 42.5794 -83.4989 138° Southeast 281 323 6,500 -1,800 Descending Cleveland Center
08:57AM 42.5614 -83.4756 136° Southeast 274 315 6,200 -540 Descending Cleveland Center
08:57AM 42.5250 -83.4286 136° Southeast 271 312 6,000 -120 Descending Cleveland Center
08:58AM 42.5069 -83.4053 136° Southeast 280 322 6,100 -120 Climbing Cleveland Center
08:58AM 42.4750 -83.3450 126° Southeast 241 277 5,900 -360 Descending Cleveland Center
08:59AM 42.4428 -83.2928 130° Southeast 197 227 5,600 -780 Descending Cleveland Center
09:00AM 42.3914 -83.2708 162° South 178 205 4,400 -1,020 Descending Cleveland Center
09:01AM 42.3472 -83.2775 186° South 156 180 3,500 -960 Descending Cleveland Center
09:02AM 42.3111 -83.3069 211° Southwest 156 180 2,500 -1,020 Descending Cleveland Center